D/T METAR WX W/SPE G/SPE TEMP DEWP FEEL
31/01/23 12:20 EGYH 311220Z 29019KT 9999 SCT035 11/04 Q1019 RMK BLU 21.9mph 11°C 4°C 10.0°C
31/01/23 06:50 EGYH 310650Z AUTO 25013KT 9999 // FEW052/// 05/04 Q1020 15.0mph 5°C 4°C 4.0°C
31/01/23 05:50 EGYH 310550Z AUTO 24017KT 9999 NCD 06/04 Q1020 19.6mph 6°C 4°C 5.0°C
30/01/23 21:50 EGYH 302150Z AUTO 23011KT 9999 NCD 03/01 Q1025 12.7mph 3°C 1°C 1.1°C
30/01/23 12:50 EGYH 301250Z AUTO 30015KT 9999 NCD 09/03 Q1023 17.3mph 9°C 3°C 7.7°C
30/01/23 11:50 EGYH 301150Z 29014KT 9999 SKC 09/03 Q1023 RMK BLU 16.1mph 9°C 3°C 7.7°C
30/01/23 10:50 EGYH 301050Z 28012KT 9999 SKC 08/03 Q1022 RMK BLU 13.8mph 8°C 3°C 6.7°C
30/01/23 10:20 EGYH 301020Z 27010KT 9999 SKC 07/03 Q1022 RMK BLU 11.5mph 7°C 3°C 5.7°C
30/01/23 09:50 EGYH 300950Z 27011KT 9999 SKC 07/03 Q1022 RMK BLU 12.7mph 7°C 3°C 5.7°C
30/01/23 07:50 EGYH 300750Z AUTO 27012KT 9999 NCD 04/02 Q1020 13.8mph 4°C 2°C 2.4°C
30/01/23 06:20 EGYH 300620Z AUTO 26012KT 9999 NCD 04/01 Q1019 13.8mph 4°C 1°C 2.1°C
09/01/23 06:20 EGYH 090620Z AUTO 23011KT 9999 NCD 03/03 Q0992 12.7mph 3°C 3°C 1.7°C
09/01/23 05:50 EGYH 090550Z AUTO 23009KT 9999 NCD 03/02 Q0991 10.4mph 3°C 2°C 1.4°C
09/01/23 05:20 EGYH 090520Z AUTO 24007KT 9999 FEW210/// 03/02 Q0991 8.1mph 3°C 2°C 1.4°C
09/01/23 04:50 EGYH 090450Z AUTO 24010KT 9999 FEW054/// BKN150/// 03/03 Q0991 11.5mph 3°C 3°C 1.7°C
09/01/23 04:20 EGYH 090420Z AUTO 24010KT 9999 BKN045/// 03/03 Q0990 11.5mph 3°C 3°C 1.7°C
09/01/23 03:50 EGYH 090350Z AUTO 24010KT 9999 BKN045/// 03/03 Q0990 11.5mph 3°C 3°C 1.7°C
09/01/23 03:20 EGYH 090320Z AUTO 23012KT 9999 NCD 03/03 Q0989 13.8mph 3°C 3°C 1.7°C
09/01/23 02:50 EGYH 090250Z AUTO 24011KT 9999 NCD 03/02 Q0989 12.7mph 3°C 2°C 1.4°C
09/01/23 02:20 EGYH 090220Z AUTO 23011KT 9999 SCT031/// 03/02 Q0989 12.7mph 3°C 2°C 1.4°C
09/01/23 01:20 EGYH 090120Z AUTO 20011KT 9999 FEW044/// 03/02 Q0988 12.7mph 3°C 2°C 1.4°C
09/01/23 00:50 EGYH 090050Z AUTO 20010KT 9999 NCD 03/02 Q0988 11.5mph 3°C 2°C 1.4°C
09/01/23 00:20 EGYH 090020Z AUTO 21011KT 9999 FEW035/// 03/02 Q0988 12.7mph 3°C 2°C 1.4°C
08/01/23 23:50 EGYH 082350Z AUTO 20010KT 9999 NCD 03/02 Q0988 11.5mph 3°C 2°C 1.4°C
08/01/23 23:20 EGYH 082320Z AUTO 21010KT 9999 FEW200/// 04/03 Q0987 11.5mph 4°C 3°C 2.7°C
08/01/23 22:50 EGYH 082250Z AUTO 21012KT 9999 OVC170/// 04/03 Q0987 13.8mph 4°C 3°C 2.7°C
08/01/23 22:20 EGYH 082220Z AUTO 21013KT 9999 BKN120/// 04/03 Q0987 15.0mph 4°C 3°C 2.7°C
08/01/23 21:50 EGYH 082150Z AUTO 20010KT 9999 BKN120/// 04/03 Q0987 11.5mph 4°C 3°C 2.7°C
08/01/23 20:20 EGYH 082020Z AUTO 22016KT 9999 FEW180/// 05/03 Q0987 18.4mph 5°C 3°C 3.7°C
08/01/23 19:20 EGYH 081920Z AUTO 22015KT 9999 // FEW052/// SCT071/// 06/04 Q0987 17.3mph 6°C 4°C 5.0°C
08/01/23 18:50 EGYH 081850Z AUTO 22012KT 9999 // FEW051/// BKN065/// 07/05 Q0986 13.8mph 7°C 5°C 6.3°C
08/01/23 18:20 EGYH 081820Z AUTO 21014KT 9999 -RA SCT031/// SCT057/// 07/05 Q0986 -RA 16.1mph 7°C 5°C 6.3°C
08/01/23 17:50 EGYH 081750Z AUTO 20013KT 9999 OVC024/// 07/05 Q0986 15.0mph 7°C 5°C 6.3°C
08/01/23 17:20 EGYH 081720Z AUTO 20011KT 9999 FEW037/// 07/05 Q0986 12.7mph 7°C 5°C 6.3°C
08/01/23 16:50 EGYH 081650Z AUTO 20013KT 9999 FEW087/// BKN140/// 07/05 Q0986 15.0mph 7°C 5°C 6.3°C
08/01/23 16:20 EGYH 081620Z AUTO 20014KT 9999 // FEW022/// OVC110/// 07/05 Q0986 16.1mph 7°C 5°C 6.3°C
08/01/23 15:50 EGYH 081550Z AUTO 20016KT 9999 // FEW023/// SCT120/// 07/05 Q0987 18.4mph 7°C 5°C 6.3°C
08/01/23 15:20 EGYH 081520Z AUTO 20015KT 9999 -RA FEW035/// 08/05 Q0987 -RA 17.3mph 8°C 5°C 7.3°C
08/01/23 14:20 EGYH 081420Z AUTO 20021KT 9999 OVC026/// 08/05 Q0987 24.2mph 8°C 5°C 7.3°C
08/01/23 13:50 EGYH 081350Z AUTO 20019KT 9999 BKN027/// 09/05 Q0987 21.9mph 9°C 5°C 8.3°C
08/01/23 13:20 EGYH 081320Z AUTO 20019KT 9999 FEW027/// 09/05 Q0988 21.9mph 9°C 5°C 8.3°C
08/01/23 12:50 EGYH 081250Z AUTO 19020KT 9999 BKN018/// SCT079/// 09/06 Q0988 23.0mph 9°C 6°C 8.6°C
08/01/23 12:20 EGYH 081220Z AUTO 19018KT 9999 BKN021/// 09/06 Q0989 20.7mph 9°C 6°C 8.6°C
08/01/23 11:50 EGYH 081150Z AUTO 19016KT 9999 NCD 08/06 Q0990 18.4mph 8°C 6°C 7.6°C
08/01/23 11:20 EGYH 081120Z AUTO 19016KT 9999 NCD 08/05 Q0990 18.4mph 8°C 5°C 7.3°C
08/01/23 10:50 EGYH 081050Z AUTO 19015KT 9999 NCD 07/05 Q0991 17.3mph 7°C 5°C 6.3°C
08/01/23 10:20 EGYH 081020Z AUTO 20016KT 9999 NCD 07/05 Q0991 18.4mph 7°C 5°C 6.3°C
08/01/23 09:50 EGYH 080950Z AUTO 20017KT 9999 NCD 07/05 Q0991 19.6mph 7°C 5°C 6.3°C
08/01/23 09:20 EGYH 080920Z AUTO 20016KT 9999 SCT032/// 06/04 Q0991 18.4mph 6°C 4°C 5.0°C
08/01/23 08:50 EGYH 080850Z AUTO 20013KT 9999 FEW038/// BKN082/// 06/04 Q0992 15.0mph 6°C 4°C 5.0°C
08/01/23 08:20 EGYH 080820Z AUTO 20013KT 9999 SCT024/// SCT100/// 06/04 Q0992 15.0mph 6°C 4°C 5.0°C
08/01/23 07:50 EGYH 080750Z AUTO 20015KT 9999 FEW045/// OVC150/// 06/04 Q0992 17.3mph 6°C 4°C 5.0°C
08/01/23 07:20 EGYH 080720Z AUTO 19015KT 9999 FEW200/// 06/04 Q0992 17.3mph 6°C 4°C 5.0°C
08/01/23 06:50 EGYH 080650Z AUTO 20015KT 9999 NCD 06/04 Q0992 17.3mph 6°C 4°C 5.0°C
08/01/23 06:20 EGYH 080620Z AUTO 20016KT 9999 FEW200/// 07/04 Q0992 18.4mph 7°C 4°C 6.0°C
08/01/23 05:50 EGYH 080550Z AUTO 20018KT 9999 SCT210/// 07/05 Q0992 20.7mph 7°C 5°C 6.3°C
08/01/23 05:20 EGYH 080520Z AUTO 20017KT 9999 FEW041/// 07/05 Q0992 19.6mph 7°C 5°C 6.3°C
08/01/23 04:50 EGYH 080450Z AUTO 20019KT 9999 FEW025/// SCT150/// 07/05 Q0992 21.9mph 7°C 5°C 6.3°C
08/01/23 04:20 EGYH 080420Z AUTO 20020KT 9999 BKN040/// 08/06 Q0992 23.0mph 8°C 6°C 7.6°C
08/01/23 03:50 EGYH 080350Z AUTO 20018KT 9999 NCD 07/05 Q0993 20.7mph 7°C 5°C 6.3°C
08/01/23 03:20 EGYH 080320Z AUTO 20020KT 9999 FEW025/// SCT180/// 07/05 Q0993 23.0mph 7°C 5°C 6.3°C
08/01/23 02:50 EGYH 080250Z AUTO 21019KT 9999 OVC029/// 07/05 Q0993 21.9mph 7°C 5°C 6.3°C
08/01/23 02:20 EGYH 080220Z AUTO 21016KT 9999 FEW027/// 06/05 Q0993 18.4mph 6°C 5°C 5.3°C
08/01/23 01:50 EGYH 080150Z AUTO 21017KT 9999 FEW031/// 07/05 Q0993 19.6mph 7°C 5°C 6.3°C
08/01/23 01:20 EGYH 080120Z AUTO 21019KT 9999 NCD 07/05 Q0993 21.9mph 7°C 5°C 6.3°C
08/01/23 00:20 EGYH 080020Z AUTO 20017KT 9999 FEW033/// 07/05 Q0994 19.6mph 7°C 5°C 6.3°C
07/01/23 23:50 EGYH 072350Z AUTO 20017KT 9999 NCD 07/04 Q0993 19.6mph 7°C 4°C 6.0°C
07/01/23 23:20 EGYH 072320Z AUTO 21020KT 9999 SCT038/// 07/04 Q0994 23.0mph 7°C 4°C 6.0°C
07/01/23 22:50 EGYH 072250Z AUTO 21020KT 9999 NCD 07/04 Q0994 23.0mph 7°C 4°C 6.0°C
07/01/23 22:20 EGYH 072220Z AUTO 21020KT 9999 NCD 07/04 Q0993 23.0mph 7°C 4°C 6.0°C
07/01/23 21:50 EGYH 072150Z AUTO 21020KT 9999 FEW031/// 07/04 Q0994 23.0mph 7°C 4°C 6.0°C
07/01/23 21:20 EGYH 072120Z AUTO 21018KT 9999 NCD 07/05 Q0994 20.7mph 7°C 5°C 6.3°C
07/01/23 20:50 EGYH 072050Z AUTO 22017KT 9999 NCD 07/05 Q0993 19.6mph 7°C 5°C 6.3°C
07/01/23 20:20 EGYH 072020Z AUTO 23020KT 9999 BKN024/// 08/05 Q0993 23.0mph 8°C 5°C 7.3°C
07/01/23 19:50 EGYH 071950Z AUTO 22020KT 9999 BKN140/// 08/05 Q0993 23.0mph 8°C 5°C 7.3°C
07/01/23 19:20 EGYH 071920Z AUTO 22020KT 9999 // BKN100/// 08/06 Q0992 23.0mph 8°C 6°C 7.6°C
07/01/23 18:50 EGYH 071850Z AUTO 22020KT 9999 // FEW045/// BKN090/// 08/07 Q0992 23.0mph 8°C 7°C 8.0°C
07/01/23 18:20 EGYH 071820Z AUTO 21023G40KT 1800 +RA OVC011/// 07/05 Q0992 +RA 26.5mph 46.0mph 7°C 5°C 6.3°C
07/01/23 17:50 EGYH 071750Z AUTO 20019KT 9999 // FEW057/// BKN110/// 09/07 Q0992 21.9mph 9°C 7°C 9.0°C
07/01/23 17:20 EGYH 071720Z AUTO 19018KT 9999 // FEW056/// SCT075/// 10/07 Q0992 20.7mph 10°C 7°C 10.0°C
07/01/23 16:50 EGYH 071650Z AUTO 19014KT 9999 FEW031/// OVC057/// 10/09 Q0992 16.1mph 10°C 9°C 10.8°C
07/01/23 16:20 EGYH 071620Z AUTO 19017KT 9999 NCD 10/09 Q0992 19.6mph 10°C 9°C 10.8°C
07/01/23 15:50 EGYH 071550Z AUTO 20021KT 9999 // OVC011/// 11/09 Q0993 24.2mph 11°C 9°C 11.8°C
07/01/23 15:20 EGYH 071520Z AUTO 19019G29KT 9999 // OVC014/// 11/09 Q0993 21.9mph 33.4mph 11°C 9°C 11.8°C
07/01/23 14:50 EGYH 071450Z AUTO 19017KT 9999 -RA OVC012/// 11/09 Q0993 -RA 19.6mph 11°C 9°C 11.8°C
07/01/23 14:20 EGYH 071420Z AUTO 19015KT 9999 OVC013/// 11/09 Q0993 17.3mph 11°C 9°C 11.8°C
07/01/23 13:50 EGYH 071350Z AUTO 19015KT 9999 OVC010/// 11/09 Q0994 17.3mph 11°C 9°C 11.8°C
07/01/23 12:50 EGYH 071250Z AUTO 18015KT 9999 // OVC010/// 10/09 Q0994 17.3mph 10°C 9°C 10.8°C
07/01/23 12:20 EGYH 071220Z AUTO 18017G27KT 9999 // OVC010/// 10/09 Q0995 19.6mph 31.1mph 10°C 9°C 10.8°C
07/01/23 11:50 EGYH 071150Z AUTO 18018KT 9999 -DZ OVC009/// 10/09 Q0996 -DZ 20.7mph 10°C 9°C 10.8°C
07/01/23 11:20 EGYH 071120Z AUTO 18019KT 9999 // OVC011/// 10/08 Q0996 21.9mph 10°C 8°C 10.4°C
07/01/23 10:50 EGYH 071050Z AUTO 18019G30KT 9999 -RA OVC015/// 10/08 Q0997 -RA 21.9mph 34.5mph 10°C 8°C 10.4°C
07/01/23 10:20 EGYH 071020Z AUTO 18020G34KT 9999 -RA OVC017/// 10/08 Q0997 -RA 23.0mph 39.1mph 10°C 8°C 10.4°C
07/01/23 09:50 EGYH 070950Z AUTO 18020G34KT 9999 -RA OVC019/// 10/08 Q0997 -RA 23.0mph 39.1mph 10°C 8°C 10.4°C
07/01/23 09:20 EGYH 070920Z AUTO 18020G33KT 9999 -RA OVC027/// 10/07 Q0997 -RA 23.0mph 38.0mph 10°C 7°C 10.0°C
07/01/23 08:50 EGYH 070850Z AUTO 18022G34KT 9999 OVC024/// 11/07 Q0998 25.3mph 39.1mph 11°C 7°C 11.0°C